createdAt,value
2019-02-11T00:00:24.782Z,93.23
2019-02-11T00:02:54.585Z,93.31
2019-02-11T00:05:22.655Z,93.92
2019-02-11T00:07:50.807Z,94.13
2019-02-11T00:10:18.824Z,93.83
2019-02-11T00:12:46.764Z,93.53
2019-02-11T00:15:14.751Z,92.66
2019-02-11T00:17:42.784Z,92.55
2019-02-11T00:20:10.632Z,92.61
2019-02-11T00:22:38.727Z,93.05
2019-02-11T00:25:06.870Z,93.29
2019-02-11T00:27:34.871Z,93.60
2019-02-11T00:30:02.760Z,94.11
2019-02-11T00:32:30.839Z,93.58
2019-02-11T00:34:58.904Z,91.17
2019-02-11T00:37:26.774Z,90.57
2019-02-11T00:39:54.375Z,91.08
2019-02-11T00:42:22.273Z,88.45
2019-02-11T00:44:50.357Z,88.92
2019-02-11T00:47:18.691Z,89.74
2019-02-11T00:49:46.689Z,91.09
2019-02-11T00:52:14.597Z,90.95
2019-02-11T00:54:42.649Z,91.90
2019-02-11T00:57:10.616Z,91.88
2019-02-11T00:59:38.582Z,92.43
2019-02-11T01:02:06.689Z,92.05
2019-02-11T01:04:34.796Z,92.74
2019-02-11T01:07:02.665Z,92.90
2019-02-11T01:09:30.673Z,93.12
2019-02-11T01:11:58.533Z,92.90
2019-02-11T01:14:26.623Z,92.61
2019-02-11T01:16:54.622Z,91.80
2019-02-11T01:19:24.094Z,92.76
2019-02-11T01:21:52.099Z,89.85
2019-02-11T01:24:19.998Z,91.63
2019-02-11T01:26:48.033Z,90.17
2019-02-11T01:29:15.804Z,88.04
2019-02-11T01:31:43.736Z,88.87
2019-02-11T01:34:11.791Z,89.36
2019-02-11T01:36:39.714Z,87.83
2019-02-11T01:39:07.693Z,88.77
2019-02-11T01:41:36.883Z,87.36
2019-02-11T01:44:04.648Z,86.84
2019-02-11T01:46:32.488Z,87.89
2019-02-11T01:49:00.655Z,88.06
2019-02-11T01:51:28.750Z,88.20
2019-02-11T01:53:56.981Z,88.57
2019-02-11T01:56:25.182Z,87.63
2019-02-11T01:58:53.199Z,88.00
2019-02-11T02:01:21.154Z,86.77
2019-02-11T02:03:49.335Z,88.22
2019-02-11T02:06:19.474Z,87.92
2019-02-11T02:08:47.433Z,87.16
2019-02-11T02:11:15.594Z,87.00
2019-02-11T02:13:45.114Z,87.41
2019-02-11T02:16:13.222Z,88.03
2019-02-11T02:18:41.244Z,88.32
2019-02-11T02:21:09.044Z,88.60
2019-02-11T02:23:36.906Z,88.93
2019-02-11T02:26:05.013Z,89.33
2019-02-11T02:28:33.105Z,89.12
2019-02-11T02:31:01.249Z,89.29
2019-02-11T02:33:29.419Z,89.95
2019-02-11T02:35:57.548Z,90.08
2019-02-11T02:38:25.523Z,89.92
2019-02-11T02:40:53.650Z,90.15
2019-02-11T02:43:22.616Z,90.61
2019-02-11T02:45:50.690Z,91.04
2019-02-11T02:48:18.698Z,91.12
2019-02-11T02:50:46.695Z,91.72
2019-02-11T02:53:14.915Z,91.61
2019-02-11T02:55:42.948Z,91.66
2019-02-11T02:58:10.771Z,90.16
2019-02-11T03:00:39.056Z,89.46
2019-02-11T03:03:07.081Z,89.52
2019-02-11T03:05:35.191Z,89.50
2019-02-11T03:08:03.146Z,89.72
2019-02-11T03:10:31.480Z,90.07
2019-02-11T03:12:59.650Z,91.12
2019-02-11T03:15:27.582Z,91.05
2019-02-11T03:17:55.413Z,90.78
2019-02-11T03:20:23.356Z,90.37
2019-02-11T03:22:51.220Z,90.37
2019-02-11T03:25:19.028Z,90.18
2019-02-11T03:27:46.916Z,90.31
2019-02-11T03:30:14.855Z,90.02
2019-02-11T03:32:42.779Z,89.75
2019-02-11T03:35:10.877Z,89.71
2019-02-11T03:37:38.759Z,89.95
2019-02-11T03:40:06.962Z,89.65
2019-02-11T03:42:34.713Z,89.63
2019-02-11T03:45:02.680Z,89.96
2019-02-11T03:47:30.474Z,90.31
2019-02-11T03:49:58.525Z,90.79
2019-02-11T03:52:26.532Z,90.93
2019-02-11T03:54:54.550Z,90.91
2019-02-11T03:57:22.935Z,91.18
2019-02-11T03:59:50.999Z,91.05
2019-02-11T04:02:19.034Z,91.26
2019-02-11T04:04:47.157Z,91.17
2019-02-11T04:07:15.097Z,91.23
2019-02-11T04:09:43.185Z,90.94
2019-02-11T04:12:11.395Z,91.42
2019-02-11T04:14:39.328Z,91.49
2019-02-11T04:17:07.230Z,91.79
2019-02-11T04:19:35.150Z,92.07
2019-02-11T04:22:07.108Z,91.87
2019-02-11T04:24:35.008Z,91.66
2019-02-11T04:27:03.275Z,91.90
2019-02-11T04:29:31.265Z,92.09
2019-02-11T04:31:59.113Z,92.48
2019-02-11T04:34:27.182Z,92.85
2019-02-11T04:36:55.249Z,93.12
2019-02-11T04:39:23.387Z,93.06
2019-02-11T04:41:51.438Z,92.99
2019-02-11T04:44:19.541Z,92.71
2019-02-11T04:46:47.589Z,92.60
2019-02-11T04:49:15.643Z,92.08
2019-02-11T04:51:43.495Z,92.20
2019-02-11T04:54:11.461Z,92.47
2019-02-11T04:56:39.467Z,92.32
2019-02-11T04:59:07.496Z,92.17
2019-02-11T05:01:35.373Z,92.05
2019-02-11T05:04:03.553Z,91.93
2019-02-11T05:06:31.451Z,92.13
2019-02-11T05:08:59.580Z,92.06
2019-02-11T05:11:27.355Z,92.34
2019-02-11T05:13:55.319Z,92.19
2019-02-11T05:16:23.088Z,92.14
2019-02-11T05:18:51.052Z,91.98
2019-02-11T05:21:18.940Z,92.24
2019-02-11T05:23:46.897Z,92.64
2019-02-11T05:26:14.971Z,92.89
2019-02-11T05:28:43.030Z,93.35
2019-02-11T05:31:11.194Z,93.17
2019-02-11T05:33:39.307Z,93.80
2019-02-11T05:36:07.622Z,94.21
2019-02-11T05:38:35.625Z,94.53
2019-02-11T05:41:03.658Z,94.24
2019-02-11T05:43:32.740Z,94.02
2019-02-11T05:46:00.715Z,93.76
2019-02-11T05:48:28.882Z,94.02
2019-02-11T05:50:56.934Z,94.29
2019-02-11T05:53:25.207Z,94.11
2019-02-11T05:55:53.275Z,93.96
2019-02-11T05:58:21.364Z,93.69
2019-02-11T06:00:52.364Z,93.45
2019-02-11T06:03:20.386Z,94.06
2019-02-11T06:05:48.715Z,94.04
2019-02-11T06:08:16.719Z,93.87
2019-02-11T06:10:45.009Z,94.30
2019-02-11T06:13:12.909Z,94.64
2019-02-11T06:15:40.649Z,94.74
2019-02-11T06:18:08.291Z,94.82
2019-02-11T06:20:35.950Z,95.00
2019-02-11T06:23:03.585Z,95.26
2019-02-11T06:25:31.303Z,95.48
2019-02-11T06:27:59.028Z,96.19
2019-02-11T06:30:27.650Z,96.63
2019-02-11T06:32:55.420Z,96.66
2019-02-11T06:35:23.116Z,96.36
2019-02-11T06:37:50.649Z,95.62
2019-02-11T06:40:18.262Z,95.43
2019-02-11T06:42:45.822Z,96.27
2019-02-11T06:45:13.631Z,96.32
2019-02-11T06:47:41.266Z,96.04
2019-02-11T06:50:09.808Z,95.75
2019-02-11T06:52:37.336Z,96.57
2019-02-11T06:55:06.133Z,96.74
2019-02-11T06:57:33.787Z,96.46
2019-02-11T07:00:01.745Z,96.50
2019-02-11T07:02:29.397Z,96.38
2019-02-11T07:04:57.070Z,96.54
2019-02-11T07:07:24.746Z,96.86
2019-02-11T07:09:52.579Z,96.92
2019-02-11T07:12:20.477Z,96.63
2019-02-11T07:14:48.145Z,96.43
2019-02-11T07:17:15.870Z,96.60
2019-02-11T07:19:43.567Z,96.63
2019-02-11T07:22:11.331Z,96.65
2019-02-11T07:24:40.197Z,96.44
2019-02-11T07:27:07.955Z,96.85
2019-02-11T07:29:35.562Z,96.97
2019-02-11T07:32:03.236Z,96.95
2019-02-11T07:34:30.918Z,96.73
2019-02-11T07:36:58.593Z,96.49
2019-02-11T07:39:26.239Z,96.26
2019-02-11T07:42:25.277Z,96.55
2019-02-11T07:44:57.941Z,96.46
2019-02-11T07:47:25.841Z,96.36
2019-02-11T07:49:53.548Z,96.39
2019-02-11T07:52:26.682Z,96.73
2019-02-11T07:54:50.678Z,96.70
2019-02-11T07:57:18.286Z,96.46
2019-02-11T07:59:45.855Z,96.60
2019-02-11T08:02:13.517Z,96.45
2019-02-11T08:04:41.092Z,96.13
2019-02-11T08:07:10.402Z,96.02
2019-02-11T08:09:38.141Z,96.58
2019-02-11T08:12:05.872Z,96.97
2019-02-11T08:14:33.570Z,96.70
2019-02-11T08:17:02.161Z,96.55
2019-02-11T08:19:29.774Z,96.78
2019-02-11T08:21:57.404Z,97.13
2019-02-11T08:24:25.127Z,96.96
2019-02-11T08:26:52.807Z,96.83
2019-02-11T08:29:20.513Z,97.02
2019-02-11T08:31:48.250Z,96.33
2019-02-11T08:34:15.946Z,96.22
2019-02-11T08:36:43.674Z,96.26
2019-02-11T08:39:11.685Z,95.72
2019-02-11T08:41:39.299Z,95.77
2019-02-11T08:44:06.940Z,95.62
2019-02-11T08:46:34.526Z,95.27
2019-02-11T08:49:02.124Z,94.96
2019-02-11T08:51:29.754Z,94.83
2019-02-11T08:53:57.413Z,94.53
2019-02-11T08:56:25.082Z,94.33
2019-02-11T08:58:52.749Z,94.42
2019-02-11T09:01:20.404Z,94.25
2019-02-11T09:03:48.067Z,93.97
2019-02-11T09:06:15.798Z,94.17
2019-02-11T09:08:43.501Z,93.76
2019-02-11T09:11:11.245Z,93.46
2019-02-11T09:13:38.915Z,92.95
2019-02-11T09:16:06.661Z,92.28
2019-02-11T09:18:34.400Z,92.51
2019-02-11T09:21:02.098Z,92.80
2019-02-11T09:23:29.786Z,92.95
2019-02-11T09:25:57.369Z,92.95
2019-02-11T09:28:26.053Z,92.75
2019-02-11T09:30:53.630Z,92.45
2019-02-11T09:33:21.180Z,92.35
2019-02-11T09:35:48.777Z,92.51
2019-02-11T09:38:16.507Z,92.37
2019-02-11T09:40:44.079Z,92.55
2019-02-11T09:43:11.663Z,92.31
2019-02-11T09:45:39.254Z,91.94
2019-02-11T09:48:06.884Z,91.29
2019-02-11T09:50:42.950Z,91.79
2019-02-11T09:53:10.592Z,91.69
2019-02-11T09:55:38.217Z,91.30
2019-02-11T09:58:05.908Z,91.50
2019-02-11T10:00:33.474Z,90.58
2019-02-11T10:03:01.106Z,89.65
2019-02-11T10:05:28.754Z,89.94
2019-02-11T10:07:57.541Z,89.41
2019-02-11T10:10:25.117Z,89.40
2019-02-11T10:12:52.777Z,88.81
2019-02-11T10:15:20.445Z,88.51
2019-02-11T10:17:48.067Z,87.98
2019-02-11T10:20:17.297Z,89.59
2019-02-11T10:22:44.908Z,90.42
2019-02-11T10:25:15.167Z,90.58
2019-02-11T10:27:42.776Z,90.40
2019-02-11T10:30:11.759Z,90.00
2019-02-11T10:32:40.552Z,89.91
2019-02-11T10:35:09.098Z,88.06
2019-02-11T10:37:36.671Z,85.66
2019-02-11T10:40:05.078Z,84.68
2019-02-11T10:42:32.656Z,83.70
2019-02-11T10:45:00.233Z,82.71
2019-02-11T10:47:27.791Z,81.41
2019-02-11T10:49:55.368Z,79.59
2019-02-11T10:52:22.911Z,77.15
2019-02-11T10:54:50.616Z,75.45
2019-02-11T10:57:18.494Z,72.67
2019-02-11T10:59:46.188Z,71.56
2019-02-11T11:02:13.965Z,70.36
2019-02-11T11:04:41.662Z,67.09
2019-02-11T11:07:09.386Z,67.88
2019-02-11T11:09:37.066Z,65.49
2019-02-11T11:12:04.848Z,62.01
2019-02-11T11:14:32.631Z,58.12
2019-02-11T11:17:03.139Z,57.67
2019-02-11T11:19:30.844Z,60.17
2019-02-11T11:21:59.153Z,56.90
2019-02-11T11:24:26.915Z,56.55
2019-02-11T11:26:54.687Z,56.18
2019-02-11T11:29:22.375Z,54.63
2019-02-11T11:31:49.916Z,56.09
2019-02-11T11:34:17.606Z,56.30
2019-02-11T11:36:45.219Z,55.83
2019-02-11T11:39:19.367Z,54.64
2019-02-11T11:41:46.970Z,54.43
2019-02-11T11:44:14.605Z,56.52
2019-02-11T11:46:47.175Z,55.57
2019-02-11T11:49:11.868Z,55.76
2019-02-11T11:51:40.634Z,56.27
2019-02-11T11:54:08.394Z,55.56
2019-02-11T11:56:36.006Z,56.76
2019-02-11T11:59:03.795Z,56.71
2019-02-11T12:01:31.485Z,55.01
2019-02-11T12:03:59.172Z,53.28
2019-02-11T12:06:26.942Z,54.45
2019-02-11T12:08:58.714Z,52.63
2019-02-11T12:11:24.202Z,50.97
2019-02-11T12:13:51.834Z,52.22
2019-02-11T12:16:19.443Z,53.22
2019-02-11T12:18:47.132Z,52.52
2019-02-11T12:21:14.763Z,52.66
2019-02-11T12:23:42.391Z,52.43
2019-02-11T12:26:10.043Z,53.07
2019-02-11T12:28:38.703Z,53.47
2019-02-11T12:31:06.835Z,53.13
2019-02-11T12:33:34.584Z,52.97
2019-02-11T12:36:02.254Z,51.95
2019-02-11T12:38:29.899Z,51.68
2019-02-11T12:40:57.500Z,50.21
2019-02-11T12:43:25.120Z,52.08
2019-02-11T12:45:52.708Z,50.99
2019-02-11T12:48:20.522Z,50.33
2019-02-11T12:50:48.242Z,51.44
2019-02-11T12:53:16.257Z,51.29
2019-02-11T12:55:43.995Z,51.63
2019-02-11T12:58:12.706Z,51.03
2019-02-11T13:00:40.512Z,49.52
2019-02-11T13:03:08.239Z,49.51
2019-02-11T13:05:44.803Z,49.72
2019-02-11T13:08:05.357Z,49.95
2019-02-11T13:10:32.972Z,47.24
2019-02-11T13:13:00.605Z,47.64
2019-02-11T13:15:56.470Z,47.62
2019-02-11T13:17:58.087Z,48.25
2019-02-11T13:20:27.449Z,47.80
2019-02-11T13:22:55.122Z,47.80
2019-02-11T13:25:22.822Z,46.69
2019-02-11T13:27:50.583Z,46.63
2019-02-11T13:30:19.241Z,47.91
2019-02-11T13:32:46.932Z,48.25
2019-02-11T13:35:14.713Z,47.27
2019-02-11T13:37:42.313Z,47.43
2019-02-11T13:40:11.225Z,46.54
2019-02-11T13:42:38.817Z,47.49
2019-02-11T13:45:10.736Z,47.01
2019-02-11T13:47:52.435Z,48.28
2019-02-11T13:50:08.820Z,48.17
2019-02-11T13:52:36.454Z,48.47
2019-02-11T13:55:04.464Z,48.90
2019-02-11T13:57:32.219Z,49.67
2019-02-11T13:59:59.858Z,47.77
2019-02-11T14:02:27.529Z,47.59
2019-02-11T14:04:55.124Z,46.84
2019-02-11T14:07:22.922Z,46.33
2019-02-11T14:09:50.490Z,44.40
2019-02-11T14:12:18.247Z,45.44
2019-02-11T14:14:45.792Z,45.69
2019-02-11T14:17:13.421Z,46.82
2019-02-11T14:19:41.103Z,46.89
2019-02-11T14:22:09.060Z,46.90
2019-02-11T14:24:36.998Z,49.08
2019-02-11T14:27:04.945Z,49.06
2019-02-11T14:29:32.949Z,50.16
2019-02-11T14:32:01.213Z,49.79
2019-02-11T14:34:28.908Z,50.72
2019-02-11T14:36:56.730Z,51.54
2019-02-11T14:39:24.989Z,51.09
2019-02-11T14:41:52.820Z,51.45
2019-02-11T14:44:20.677Z,52.08
2019-02-11T14:46:48.494Z,51.53
2019-02-11T14:49:16.312Z,52.24
2019-02-11T14:51:44.076Z,51.01
2019-02-11T14:54:11.833Z,52.77
2019-02-11T14:56:39.683Z,52.25
2019-02-11T14:59:07.395Z,51.97
2019-02-11T15:01:35.153Z,52.23
2019-02-11T15:04:02.839Z,52.90
2019-02-11T15:06:33.235Z,52.86
2019-02-11T15:09:00.992Z,53.74
2019-02-11T15:11:30.395Z,54.25
2019-02-11T15:13:58.097Z,53.12
2019-02-11T15:16:25.896Z,53.58
2019-02-11T15:18:53.540Z,54.32
2019-02-11T15:21:21.107Z,54.97
2019-02-11T15:23:48.781Z,55.17
2019-02-11T15:26:22.119Z,54.52
2019-02-11T15:28:49.757Z,55.06
2019-02-11T15:31:17.467Z,55.85
2019-02-11T15:33:45.187Z,55.20
2019-02-11T15:36:15.588Z,55.47
2019-02-11T15:38:43.250Z,55.62
2019-02-11T15:41:11.021Z,55.47
2019-02-11T15:43:38.713Z,55.42
2019-02-11T15:46:07.286Z,56.92
2019-02-11T15:48:42.601Z,55.94
2019-02-11T15:51:04.437Z,56.15
2019-02-11T15:53:32.138Z,56.67
2019-02-11T15:56:06.556Z,56.34
2019-02-11T15:58:29.538Z,56.43
2019-02-11T16:00:57.117Z,56.83
2019-02-11T16:03:24.732Z,56.25
2019-02-11T16:05:52.323Z,57.59
2019-02-11T16:08:20.121Z,56.49
2019-02-11T16:10:47.675Z,56.96
2019-02-11T16:13:15.325Z,56.79
2019-02-11T16:15:42.909Z,56.76
2019-02-11T16:18:10.590Z,56.62
2019-02-11T16:20:38.192Z,56.54
2019-02-11T16:23:06.887Z,56.73
2019-02-11T16:25:34.409Z,56.62
2019-02-11T16:28:02.102Z,57.61
2019-02-11T16:30:29.705Z,57.56
2019-02-11T16:32:57.462Z,57.56
2019-02-11T16:35:25.081Z,57.46
2019-02-11T16:37:52.734Z,57.80
2019-02-11T16:40:22.552Z,58.07
2019-02-11T16:42:50.305Z,58.64
2019-02-11T16:45:17.884Z,58.37
2019-02-11T16:47:45.648Z,57.68
2019-02-11T16:50:13.373Z,57.71
2019-02-11T16:52:41.019Z,57.83
2019-02-11T16:55:08.801Z,58.52
2019-02-11T16:57:37.517Z,58.58
2019-02-11T17:00:06.899Z,57.94
2019-02-11T17:02:34.593Z,58.69
2019-02-11T17:05:02.489Z,58.71
2019-02-11T17:07:30.229Z,58.86
2019-02-11T17:09:58.016Z,58.71
2019-02-11T17:12:25.839Z,58.96
2019-02-11T17:14:53.597Z,59.22
2019-02-11T17:17:21.311Z,59.42
2019-02-11T17:19:49.105Z,58.63
2019-02-11T17:22:16.846Z,59.34
2019-02-11T17:24:44.547Z,59.66
2019-02-11T17:27:12.237Z,59.25
2019-02-11T17:29:39.839Z,59.23
2019-02-11T17:32:07.411Z,58.95
2019-02-11T17:34:35.124Z,60.08
2019-02-11T17:37:02.722Z,60.16
2019-02-11T17:39:30.454Z,59.68
2019-02-11T17:41:58.467Z,59.96
2019-02-11T17:44:29.110Z,60.26
2019-02-11T17:46:56.757Z,60.44
2019-02-11T17:49:24.784Z,59.96
2019-02-11T17:51:53.464Z,60.68
2019-02-11T17:54:21.104Z,60.64
2019-02-11T17:56:48.737Z,60.62
2019-02-11T17:59:16.466Z,60.84
2019-02-11T18:01:44.225Z,61.02
2019-02-11T18:04:12.974Z,61.66
2019-02-11T18:06:40.761Z,61.02
2019-02-11T18:09:10.258Z,61.74
2019-02-11T18:11:39.536Z,61.85
2019-02-11T18:14:07.446Z,61.80
2019-02-11T18:16:35.097Z,61.89
2019-02-11T18:19:02.812Z,61.29
2019-02-11T18:21:30.502Z,60.97
2019-02-11T18:23:58.204Z,61.53
2019-02-11T18:26:27.106Z,60.84
2019-02-11T18:28:54.736Z,60.43
2019-02-11T18:31:22.492Z,60.63
2019-02-11T18:33:50.303Z,59.71
2019-02-11T18:36:18.355Z,59.91
2019-02-11T18:38:46.130Z,59.72
2019-02-11T18:41:13.829Z,58.96
2019-02-11T18:43:41.831Z,59.73
2019-02-11T18:46:09.429Z,59.05
2019-02-11T18:48:37.063Z,59.44
2019-02-11T18:51:04.714Z,59.21
2019-02-11T18:53:32.707Z,59.53
2019-02-11T18:56:00.388Z,59.91
2019-02-11T18:58:28.032Z,58.85
2019-02-11T19:00:55.708Z,59.17
2019-02-11T19:03:23.295Z,58.63
2019-02-11T19:05:50.974Z,58.53
2019-02-11T19:08:18.549Z,58.41
2019-02-11T19:10:46.218Z,58.66
2019-02-11T19:13:13.982Z,58.43
2019-02-11T19:15:41.714Z,58.62
2019-02-11T19:18:13.466Z,58.91
2019-02-11T19:20:42.116Z,58.71
2019-02-11T19:23:09.720Z,58.84
2019-02-11T19:25:37.352Z,58.79
2019-02-11T19:28:04.970Z,59.32
2019-02-11T19:30:32.557Z,59.12
2019-02-11T19:33:00.311Z,59.20
2019-02-11T19:35:27.912Z,59.30
2019-02-11T19:37:55.518Z,59.27
2019-02-11T19:40:23.115Z,59.54
2019-02-11T19:42:50.743Z,59.99
2019-02-11T19:45:18.723Z,59.11
2019-02-11T19:47:46.357Z,59.49
2019-02-11T19:50:14.602Z,59.50
2019-02-11T19:52:43.341Z,59.27
2019-02-11T19:55:11.180Z,59.97
2019-02-11T19:57:38.922Z,58.51
2019-02-11T20:00:10.009Z,58.82
2019-02-11T20:02:37.746Z,59.17
2019-02-11T20:05:06.186Z,58.78
2019-02-11T20:07:40.911Z,58.64
2019-02-11T20:10:10.083Z,59.16
2019-02-11T20:12:37.867Z,59.08
2019-02-11T20:15:07.456Z,59.15
2019-02-11T20:17:35.140Z,59.57
2019-02-11T20:20:02.772Z,59.82
2019-02-11T20:22:30.389Z,59.74
2019-02-11T20:24:57.976Z,60.37
2019-02-11T20:27:25.749Z,60.15
2019-02-11T20:29:53.355Z,60.00
2019-02-11T20:32:21.215Z,60.22
2019-02-11T20:34:48.953Z,59.90
2019-02-11T20:37:17.179Z,60.30
2019-02-11T20:39:45.561Z,60.46
2019-02-11T20:42:14.984Z,61.12
2019-02-11T20:44:42.858Z,61.92
2019-02-11T20:47:10.636Z,61.89
2019-02-11T20:49:38.410Z,61.76
2019-02-11T20:52:06.196Z,62.25
2019-02-11T20:54:34.066Z,62.93
2019-02-11T20:57:01.799Z,63.27
2019-02-11T20:59:29.368Z,64.06
2019-02-11T21:01:57.067Z,63.36
2019-02-11T21:04:24.623Z,62.15
2019-02-11T21:06:52.371Z,60.61
2019-02-11T21:09:22.514Z,60.05
2019-02-11T21:11:50.291Z,60.85
2019-02-11T21:14:17.870Z,60.73
2019-02-11T21:16:45.915Z,61.55
2019-02-11T21:19:13.531Z,61.32
2019-02-11T21:21:43.217Z,61.17
2019-02-11T21:24:10.823Z,61.26
2019-02-11T21:26:38.760Z,61.39
2019-02-11T21:29:06.647Z,62.07
2019-02-11T21:31:34.857Z,61.97
2019-02-11T21:34:03.013Z,62.07
2019-02-11T21:36:31.112Z,62.22
2019-02-11T21:38:58.837Z,62.99
2019-02-11T21:41:26.500Z,63.00
2019-02-11T21:43:54.315Z,63.06
2019-02-11T21:46:21.993Z,63.17
2019-02-11T21:48:51.474Z,62.99
2019-02-11T21:51:19.407Z,63.14
2019-02-11T21:53:47.122Z,63.01
2019-02-11T21:56:14.834Z,62.32
2019-02-11T21:58:42.582Z,62.32
2019-02-11T22:01:10.391Z,63.00
2019-02-11T22:03:39.179Z,62.99
2019-02-11T22:06:06.919Z,62.88
2019-02-11T22:08:35.061Z,62.28
2019-02-11T22:11:03.170Z,62.21
2019-02-11T22:13:32.239Z,62.66
2019-02-11T22:16:00.328Z,62.65
2019-02-11T22:18:28.384Z,63.18
2019-02-11T22:20:56.130Z,63.14
2019-02-11T22:23:23.760Z,63.20
2019-02-11T22:25:51.317Z,63.30
2019-02-11T22:28:19.134Z,63.94
2019-02-11T22:30:46.762Z,63.85
2019-02-11T22:33:15.546Z,63.75
2019-02-11T22:35:43.173Z,63.49
2019-02-11T22:38:10.725Z,63.95
2019-02-11T22:40:38.323Z,64.31
2019-02-11T22:43:06.174Z,64.64
2019-02-11T22:45:34.168Z,65.00
2019-02-11T22:48:01.778Z,65.11
2019-02-11T22:50:29.408Z,65.25
2019-02-11T22:52:57.235Z,65.13
2019-02-11T22:55:24.791Z,64.92
2019-02-11T22:57:52.842Z,64.96
2019-02-11T23:00:28.157Z,64.70
2019-02-11T23:02:55.909Z,64.59
2019-02-11T23:05:23.490Z,64.25
2019-02-11T23:07:51.207Z,64.52
2019-02-11T23:10:19.020Z,64.82
2019-02-11T23:12:46.687Z,65.11
2019-02-11T23:15:14.497Z,64.59
2019-02-11T23:17:42.172Z,64.90
2019-02-11T23:20:10.139Z,65.48
2019-02-11T23:22:38.147Z,65.21
2019-02-11T23:25:06.058Z,65.49
2019-02-11T23:27:34.197Z,65.55
2019-02-11T23:30:02.671Z,65.63
2019-02-11T23:32:30.338Z,65.88
2019-02-11T23:34:58.072Z,66.19
2019-02-11T23:37:25.706Z,66.82
2019-02-11T23:39:53.291Z,66.93
2019-02-11T23:42:20.962Z,67.37
2019-02-11T23:44:48.505Z,67.46
2019-02-11T23:47:16.278Z,67.16
2019-02-11T23:49:44.368Z,66.63
2019-02-11T23:52:12.097Z,66.63
2019-02-11T23:54:39.665Z,66.87
2019-02-11T23:57:07.451Z,66.29
2019-02-11T23:59:35.038Z,66.31
